createdAt,value
2023-03-08T00:00:30.202Z,2.30
2023-03-08T00:02:58.089Z,2.30
2023-03-08T00:05:26.040Z,2.30
2023-03-08T00:07:54.243Z,2.20
2023-03-08T00:10:23.658Z,2.20
2023-03-08T00:12:51.495Z,2.20
2023-03-08T00:15:19.579Z,2.10
2023-03-08T00:17:47.490Z,2.10
2023-03-08T00:20:15.797Z,2.10
2023-03-08T00:22:44.345Z,2.10
2023-03-08T00:25:12.488Z,2.00
2023-03-08T00:27:41.682Z,2.00
2023-03-08T00:30:11.760Z,2.00
2023-03-08T00:32:39.674Z,2.00
2023-03-08T00:35:08.262Z,2.00
2023-03-08T00:37:36.286Z,1.90
2023-03-08T00:40:06.007Z,1.90
2023-03-08T00:42:33.896Z,1.90
2023-03-08T00:45:03.180Z,1.90
2023-03-08T00:47:31.138Z,1.80
2023-03-08T00:49:59.107Z,1.80
2023-03-08T00:52:27.119Z,1.80
2023-03-08T00:54:54.966Z,1.80
2023-03-08T00:57:22.853Z,1.70
2023-03-08T00:59:50.722Z,1.80
2023-03-08T01:02:19.937Z,1.80
2023-03-08T01:04:47.819Z,1.70
2023-03-08T01:07:15.714Z,1.70
2023-03-08T01:09:43.642Z,1.70
2023-03-08T01:12:11.559Z,1.70
2023-03-08T01:14:39.668Z,1.70
2023-03-08T01:17:07.572Z,1.70
2023-03-08T01:19:37.684Z,1.70
2023-03-08T01:22:05.603Z,1.70
2023-03-08T01:24:33.464Z,1.70
2023-03-08T01:27:01.460Z,1.70
2023-03-08T01:29:29.638Z,1.70
2023-03-08T01:31:57.501Z,1.70
2023-03-08T01:34:25.342Z,1.70
2023-03-08T01:36:54.702Z,1.70
2023-03-08T01:39:22.618Z,1.70
2023-03-08T01:41:50.561Z,1.70
2023-03-08T01:44:20.882Z,1.70
2023-03-08T01:46:48.831Z,1.70
2023-03-08T01:49:20.111Z,1.70
2023-03-08T01:51:52.870Z,1.70
2023-03-08T01:54:26.913Z,1.70
2023-03-08T01:56:58.509Z,1.70
2023-03-08T01:59:27.654Z,1.70
2023-03-08T02:01:55.562Z,1.70
2023-03-08T02:04:23.407Z,1.70
2023-03-08T02:06:51.234Z,1.70
2023-03-08T02:09:19.629Z,1.70
2023-03-08T02:11:50.049Z,1.70
2023-03-08T02:14:17.884Z,1.70
2023-03-08T02:16:45.854Z,1.70
2023-03-08T02:19:20.517Z,1.70
2023-03-08T02:21:48.385Z,1.70
2023-03-08T02:24:23.589Z,1.80
2023-03-08T02:26:53.446Z,1.80
2023-03-08T02:29:21.302Z,1.80
2023-03-08T02:31:49.175Z,1.80
2023-03-08T02:34:17.040Z,1.80
2023-03-08T02:36:44.913Z,1.80
2023-03-08T02:39:12.788Z,1.70
2023-03-08T02:41:42.060Z,1.80
2023-03-08T02:44:10.051Z,1.80
2023-03-08T02:46:37.948Z,1.80
2023-03-08T02:49:05.808Z,1.80
2023-03-08T02:51:33.666Z,1.80
2023-03-08T02:54:01.538Z,1.80
2023-03-08T02:56:29.459Z,1.80
2023-03-08T02:58:58.681Z,1.80
2023-03-08T03:01:26.699Z,1.70
2023-03-08T03:03:55.730Z,1.70
2023-03-08T03:06:24.080Z,1.70
2023-03-08T03:08:51.996Z,1.70
2023-03-08T03:11:22.497Z,1.70
2023-03-08T03:13:55.977Z,1.80
2023-03-08T03:16:26.068Z,1.80
2023-03-08T03:18:54.781Z,1.80
2023-03-08T03:21:23.473Z,1.80
2023-03-08T03:23:51.539Z,1.80
2023-03-08T03:26:22.139Z,1.80
2023-03-08T03:28:52.188Z,1.80
2023-03-08T03:31:22.800Z,1.80
2023-03-08T03:33:53.211Z,1.80
2023-03-08T03:36:22.776Z,1.80
2023-03-08T03:38:51.410Z,1.80
2023-03-08T03:41:21.604Z,1.80
2023-03-08T03:43:50.500Z,1.80
2023-03-08T03:46:20.362Z,1.90
2023-03-08T03:48:48.432Z,1.80
2023-03-08T03:51:19.715Z,1.80
2023-03-08T03:53:48.613Z,1.80
2023-03-08T03:56:18.576Z,1.80
2023-03-08T03:58:47.042Z,1.80
2023-03-08T04:01:17.726Z,1.80
2023-03-08T04:03:45.702Z,1.80
2023-03-08T04:06:15.567Z,1.80
2023-03-08T04:08:45.175Z,1.80
2023-03-08T04:11:15.147Z,1.80
2023-03-08T04:13:43.763Z,1.80
2023-03-08T04:16:12.532Z,1.80
2023-03-08T04:18:40.439Z,1.80
2023-03-08T04:21:08.780Z,1.80
2023-03-08T04:23:37.281Z,1.70
2023-03-08T04:26:07.739Z,1.70
2023-03-08T04:28:36.000Z,1.70
2023-03-08T04:31:13.858Z,1.70
2023-03-08T04:33:41.793Z,1.70
2023-03-08T04:36:10.153Z,1.70
2023-03-08T04:38:38.116Z,1.80
2023-03-08T04:41:11.875Z,1.70
2023-03-08T04:43:40.265Z,1.70
2023-03-08T04:46:09.129Z,1.80
2023-03-08T04:48:37.203Z,1.80
2023-03-08T04:51:08.377Z,1.70
2023-03-08T04:53:38.484Z,1.70
2023-03-08T04:56:08.986Z,1.70
2023-03-08T04:58:37.500Z,1.70
2023-03-08T05:01:11.574Z,1.80
2023-03-08T05:03:39.479Z,1.70
2023-03-08T05:06:07.818Z,1.70
2023-03-08T05:08:35.679Z,1.70
2023-03-08T05:11:04.676Z,1.70
2023-03-08T05:13:35.555Z,1.60
2023-03-08T05:16:03.582Z,1.60
2023-03-08T05:18:31.485Z,1.70
2023-03-08T05:21:01.131Z,1.60
2023-03-08T05:23:30.265Z,1.60
2023-03-08T05:26:00.389Z,1.60
2023-03-08T05:28:30.191Z,1.70
2023-03-08T05:31:07.423Z,1.70
2023-03-08T05:33:35.548Z,1.70
2023-03-08T05:36:04.030Z,1.70
2023-03-08T05:38:32.209Z,1.70
2023-03-08T05:41:02.429Z,1.70
2023-03-08T05:43:30.501Z,1.70
2023-03-08T05:45:59.770Z,1.70
2023-03-08T05:48:29.088Z,1.70
2023-03-08T05:50:57.094Z,1.80
2023-03-08T05:53:25.254Z,1.80
2023-03-08T05:55:55.464Z,1.80
2023-03-08T05:58:23.394Z,1.80
2023-03-08T06:00:51.217Z,1.80
2023-03-08T06:03:19.102Z,1.80
2023-03-08T06:05:48.344Z,1.90
2023-03-08T06:08:16.136Z,1.90
2023-03-08T06:10:43.953Z,1.90
2023-03-08T06:13:11.774Z,1.80
2023-03-08T06:15:39.725Z,1.90
2023-03-08T06:18:07.581Z,1.80
2023-03-08T06:20:35.374Z,1.80
2023-03-08T06:23:04.567Z,1.90
2023-03-08T06:25:32.364Z,1.80
2023-03-08T06:28:00.327Z,1.90
2023-03-08T06:30:28.200Z,1.90
2023-03-08T06:32:56.042Z,1.90
2023-03-08T06:35:23.945Z,1.90
2023-03-08T06:37:51.989Z,1.90
2023-03-08T06:40:21.453Z,1.90
2023-03-08T06:42:49.311Z,1.90
2023-03-08T06:45:17.268Z,1.90
2023-03-08T06:47:45.286Z,1.90
2023-03-08T06:50:13.252Z,1.90
2023-03-08T06:52:41.075Z,1.90
2023-03-08T06:55:10.317Z,1.90
2023-03-08T06:57:39.502Z,1.90
2023-03-08T07:00:09.586Z,2.00
2023-03-08T07:02:37.563Z,2.10
2023-03-08T07:05:06.001Z,2.00
2023-03-08T07:07:35.540Z,2.00
2023-03-08T07:10:03.733Z,2.00
2023-03-08T07:12:32.330Z,2.00
2023-03-08T07:15:01.475Z,2.10
2023-03-08T07:17:29.284Z,2.10
2023-03-08T07:19:57.102Z,2.20
2023-03-08T07:22:24.987Z,2.10
2023-03-08T07:24:52.862Z,2.00
2023-03-08T07:27:20.710Z,2.00
2023-03-08T07:29:48.544Z,2.00
2023-03-08T07:32:17.874Z,2.00
2023-03-08T07:34:46.415Z,2.00
2023-03-08T07:37:14.621Z,2.00
2023-03-08T07:39:42.892Z,2.00
2023-03-08T07:42:11.497Z,2.00
2023-03-08T07:44:39.417Z,2.00
2023-03-08T07:47:08.105Z,2.00
2023-03-08T07:49:37.326Z,2.00
2023-03-08T07:52:05.792Z,2.00
2023-03-08T07:54:33.693Z,2.00
2023-03-08T07:57:02.079Z,2.00
2023-03-08T07:59:29.945Z,2.00
2023-03-08T08:01:57.811Z,2.00
2023-03-08T08:04:25.661Z,2.00
2023-03-08T08:06:55.055Z,2.00
2023-03-08T08:09:22.871Z,2.00
2023-03-08T08:11:50.705Z,1.90
2023-03-08T08:14:18.533Z,2.00
2023-03-08T08:16:46.357Z,2.00
2023-03-08T08:19:14.835Z,1.90
2023-03-08T08:21:42.671Z,1.90
2023-03-08T08:24:11.845Z,1.90
2023-03-08T08:26:40.669Z,1.90
2023-03-08T08:29:08.579Z,1.90
2023-03-08T08:31:36.517Z,1.90
2023-03-08T08:34:04.429Z,1.90
2023-03-08T08:36:32.260Z,1.90
2023-03-08T08:39:00.122Z,1.90
2023-03-08T08:41:31.309Z,1.90
2023-03-08T08:44:00.260Z,1.90
2023-03-08T08:46:29.163Z,1.90
2023-03-08T08:48:58.593Z,1.80
2023-03-08T08:51:26.851Z,1.80
2023-03-08T08:53:55.087Z,1.80
2023-03-08T08:56:27.679Z,1.70
2023-03-08T08:58:57.957Z,1.80
2023-03-08T09:01:28.115Z,1.70
2023-03-08T09:03:56.327Z,1.70
2023-03-08T09:06:25.616Z,1.70
2023-03-08T09:08:55.672Z,1.70
2023-03-08T09:11:24.785Z,1.60
2023-03-08T09:13:53.360Z,1.60
2023-03-08T09:16:24.126Z,1.60
2023-03-08T09:18:52.244Z,1.60
2023-03-08T09:21:20.574Z,1.60
2023-03-08T09:23:48.485Z,1.60
2023-03-08T09:26:16.507Z,1.60
2023-03-08T09:28:44.623Z,1.50
2023-03-08T09:31:15.067Z,1.50
2023-03-08T09:33:45.677Z,1.50
2023-03-08T09:36:13.802Z,1.50
2023-03-08T09:38:42.653Z,1.50
2023-03-08T09:41:26.431Z,1.50
2023-03-08T09:44:06.051Z,1.50
2023-03-08T09:46:41.772Z,1.50
2023-03-08T09:49:18.016Z,1.50
2023-03-08T09:51:50.182Z,1.50
2023-03-08T09:54:22.643Z,1.50
2023-03-08T09:56:53.408Z,1.50
2023-03-08T09:59:26.797Z,1.40
2023-03-08T10:02:02.930Z,1.40
2023-03-08T10:04:56.873Z,1.40
2023-03-08T10:07:39.975Z,1.40
2023-03-08T10:10:28.704Z,1.40
2023-03-08T10:13:08.421Z,1.40
2023-03-08T10:15:42.609Z,1.50
2023-03-08T10:18:18.414Z,1.50
2023-03-08T10:20:48.385Z,1.50
2023-03-08T10:23:17.930Z,1.60
2023-03-08T10:25:46.989Z,1.70
2023-03-08T10:28:17.335Z,1.70
2023-03-08T10:30:48.191Z,1.70
2023-03-08T10:33:19.374Z,1.80
2023-03-08T10:36:02.229Z,1.90
2023-03-08T10:38:32.466Z,2.00
2023-03-08T10:41:02.768Z,2.10
2023-03-08T10:43:34.015Z,2.10
2023-03-08T10:46:04.804Z,2.10
2023-03-08T10:48:33.076Z,2.20
2023-03-08T10:51:04.541Z,2.30
2023-03-08T10:53:32.995Z,2.30
2023-03-08T10:56:02.541Z,2.30
2023-03-08T10:58:36.160Z,2.40
2023-03-08T11:01:06.631Z,2.40
2023-03-08T11:03:35.267Z,2.40
2023-03-08T11:06:06.920Z,2.30
2023-03-08T11:08:36.723Z,2.30
2023-03-08T11:11:08.081Z,2.30
2023-03-08T11:13:38.221Z,2.30
2023-03-08T11:16:23.310Z,2.30
2023-03-08T11:18:59.658Z,2.30
2023-03-08T11:21:37.308Z,2.40
2023-03-08T11:24:18.891Z,2.40
2023-03-08T11:26:58.534Z,2.30
2023-03-08T11:29:37.207Z,2.30
2023-03-08T11:32:16.158Z,2.20
2023-03-08T11:35:03.958Z,2.20
2023-03-08T11:37:39.777Z,2.20
2023-03-08T11:40:22.256Z,2.20
2023-03-08T11:42:59.210Z,2.20
2023-03-08T11:45:31.880Z,2.20
2023-03-08T11:48:23.361Z,2.20
2023-03-08T11:50:58.137Z,2.10
2023-03-08T11:53:40.635Z,2.10
2023-03-08T11:56:34.490Z,2.10
2023-03-08T11:59:08.115Z,2.10
2023-03-08T12:01:42.219Z,2.00
2023-03-08T12:04:14.805Z,2.00
2023-03-08T12:06:44.211Z,2.00
2023-03-08T12:09:22.595Z,2.00
2023-03-08T12:11:56.080Z,2.00
2023-03-08T12:14:27.183Z,2.10
2023-03-08T12:17:03.580Z,2.00
2023-03-08T12:19:37.904Z,2.00
2023-03-08T12:22:21.023Z,2.00
2023-03-08T12:24:56.738Z,2.10
2023-03-08T12:27:29.647Z,2.10
2023-03-08T12:30:05.660Z,2.20
2023-03-08T12:32:37.810Z,2.20
2023-03-08T12:35:09.323Z,2.20
2023-03-08T12:37:37.241Z,2.30
2023-03-08T12:40:11.291Z,2.30
2023-03-08T12:42:41.227Z,2.40
2023-03-08T12:45:27.919Z,2.40
2023-03-08T12:47:59.723Z,2.50
2023-03-08T12:50:27.827Z,2.50
2023-03-08T12:52:56.543Z,2.60
2023-03-08T12:55:31.666Z,2.60
2023-03-08T12:58:02.497Z,2.60
2023-03-08T13:00:32.839Z,2.60
2023-03-08T13:03:04.377Z,2.60
2023-03-08T13:05:34.914Z,2.60
2023-03-08T13:08:32.645Z,2.60
2023-03-08T13:11:08.346Z,2.60
2023-03-08T13:13:50.968Z,2.70
2023-03-08T13:16:31.414Z,2.70
2023-03-08T13:19:23.509Z,2.60
2023-03-08T13:21:58.898Z,2.60
2023-03-08T13:24:39.831Z,2.60
2023-03-08T13:27:22.472Z,2.60
2023-03-08T13:29:50.397Z,2.50
2023-03-08T13:32:20.659Z,2.50
2023-03-08T13:35:00.062Z,2.50
2023-03-08T13:37:29.993Z,2.50
2023-03-08T13:39:59.616Z,2.40
2023-03-08T13:42:29.925Z,2.30
2023-03-08T13:45:08.944Z,2.30
2023-03-08T13:47:39.617Z,2.20
2023-03-08T13:50:08.411Z,2.20
2023-03-08T13:52:39.486Z,2.10
2023-03-08T13:55:15.855Z,2.10
2023-03-08T13:57:51.937Z,2.10
2023-03-08T14:00:28.543Z,2.10
2023-03-08T14:02:58.543Z,2.10
2023-03-08T14:05:28.471Z,2.20
2023-03-08T14:08:00.932Z,2.20
2023-03-08T14:10:35.814Z,2.10
2023-03-08T14:13:06.563Z,2.10
2023-03-08T14:15:36.735Z,2.10
2023-03-08T14:18:08.186Z,2.10
2023-03-08T14:20:36.129Z,2.10
2023-03-08T14:23:04.563Z,2.10
2023-03-08T14:25:33.346Z,2.10
2023-03-08T14:28:01.173Z,2.10
2023-03-08T14:30:32.337Z,2.00
2023-03-08T14:33:03.726Z,2.00
2023-03-08T14:35:34.542Z,2.00
2023-03-08T14:38:03.017Z,2.00
2023-03-08T14:40:33.790Z,2.00
2023-03-08T14:43:04.511Z,2.10
2023-03-08T14:45:37.285Z,2.10
2023-03-08T14:48:25.448Z,2.10
2023-03-08T14:50:56.654Z,2.10
2023-03-08T14:53:29.199Z,2.10
2023-03-08T14:55:57.673Z,2.10
2023-03-08T14:58:29.029Z,2.10
2023-03-08T15:01:01.566Z,2.10
2023-03-08T15:03:30.516Z,2.10
2023-03-08T15:05:59.463Z,2.00
2023-03-08T15:08:27.354Z,2.00
2023-03-08T15:10:55.253Z,2.00
2023-03-08T15:13:24.771Z,2.00
2023-03-08T15:15:52.967Z,2.00
2023-03-08T15:18:22.246Z,2.00
2023-03-08T15:20:51.396Z,2.00
2023-03-08T15:23:22.195Z,2.00
2023-03-08T15:25:50.439Z,2.00
2023-03-08T15:28:20.959Z,2.00
2023-03-08T15:30:49.145Z,2.00
2023-03-08T15:33:16.999Z,2.00
2023-03-08T15:35:46.812Z,2.00
2023-03-08T15:38:16.077Z,2.00
2023-03-08T15:40:44.496Z,2.00
2023-03-08T15:43:12.331Z,2.00
2023-03-08T15:45:40.925Z,2.00
2023-03-08T15:48:16.271Z,1.90
2023-03-08T15:50:46.619Z,1.90
2023-03-08T15:53:23.366Z,1.90
2023-03-08T15:56:01.092Z,1.90
2023-03-08T15:58:28.953Z,1.90
2023-03-08T16:00:56.784Z,1.80
2023-03-08T16:03:30.544Z,1.90
2023-03-08T16:06:00.565Z,1.90
2023-03-08T16:08:29.381Z,1.90
2023-03-08T16:11:00.284Z,1.90
2023-03-08T16:13:28.134Z,1.90
2023-03-08T16:15:59.383Z,1.90
2023-03-08T16:18:27.375Z,1.90
2023-03-08T16:20:55.223Z,1.90
2023-03-08T16:23:24.462Z,1.90
2023-03-08T16:26:13.506Z,1.90
2023-03-08T16:28:43.516Z,1.90
2023-03-08T16:31:11.378Z,1.90
2023-03-08T16:33:39.691Z,1.90
2023-03-08T16:36:08.019Z,1.90
2023-03-08T16:38:37.289Z,1.90
2023-03-08T16:41:14.222Z,1.80
2023-03-08T16:43:49.962Z,1.80
2023-03-08T16:46:19.544Z,1.80
2023-03-08T16:48:49.500Z,1.80
2023-03-08T16:51:19.553Z,1.80
2023-03-08T16:53:48.820Z,1.80
2023-03-08T16:56:20.250Z,1.80
2023-03-08T16:58:48.329Z,1.80
2023-03-08T17:01:18.010Z,1.80
2023-03-08T17:03:46.369Z,1.80
2023-03-08T17:06:16.294Z,1.80
2023-03-08T17:08:44.184Z,1.80
2023-03-08T17:11:17.432Z,1.80
2023-03-08T17:13:50.817Z,1.70
2023-03-08T17:16:19.851Z,1.70
2023-03-08T17:18:47.765Z,1.80
2023-03-08T17:21:15.661Z,1.70
2023-03-08T17:23:43.503Z,1.80
2023-03-08T17:26:13.082Z,1.80
2023-03-08T17:28:42.616Z,1.70
2023-03-08T17:31:12.089Z,1.80
2023-03-08T17:33:40.409Z,1.80
2023-03-08T17:36:09.551Z,1.70
2023-03-08T17:38:37.769Z,1.70
2023-03-08T17:41:06.991Z,1.70
2023-03-08T17:43:35.375Z,1.80
2023-03-08T17:46:06.705Z,1.70
2023-03-08T17:48:35.765Z,1.70
2023-03-08T17:51:04.322Z,1.70
2023-03-08T17:53:33.098Z,1.60
2023-03-08T17:56:01.828Z,1.70
2023-03-08T17:58:29.873Z,1.70
2023-03-08T18:00:57.833Z,1.60
2023-03-08T18:03:27.038Z,1.60
2023-03-08T18:05:54.859Z,1.60
2023-03-08T18:08:22.679Z,1.60
2023-03-08T18:10:50.493Z,1.60
2023-03-08T18:13:18.342Z,1.70
2023-03-08T18:15:46.211Z,1.70
2023-03-08T18:18:14.052Z,1.70
2023-03-08T18:20:43.300Z,1.70
2023-03-08T18:23:13.525Z,1.70
2023-03-08T18:25:41.544Z,1.60
2023-03-08T18:28:09.385Z,1.70
2023-03-08T18:30:38.829Z,1.70
2023-03-08T18:33:06.809Z,1.70
2023-03-08T18:35:34.692Z,1.70
2023-03-08T18:38:03.973Z,1.80
2023-03-08T18:40:31.834Z,1.80
2023-03-08T18:42:59.739Z,1.80
2023-03-08T18:45:27.672Z,1.70
2023-03-08T18:47:55.469Z,1.70
2023-03-08T18:50:25.068Z,1.70
2023-03-08T18:52:52.902Z,1.70
2023-03-08T18:55:22.117Z,1.70
2023-03-08T18:57:50.150Z,1.80
2023-03-08T19:00:18.798Z,1.80
2023-03-08T19:02:46.653Z,1.80
2023-03-08T19:05:14.492Z,1.80
2023-03-08T19:07:42.310Z,1.80
2023-03-08T19:10:14.655Z,1.80
2023-03-08T19:12:44.588Z,1.80
2023-03-08T19:15:12.879Z,1.80
2023-03-08T19:17:40.732Z,1.80
2023-03-08T19:20:09.802Z,1.80
2023-03-08T19:22:39.580Z,1.70
2023-03-08T19:25:08.214Z,1.70
2023-03-08T19:27:36.248Z,1.70
2023-03-08T19:30:06.213Z,1.70
2023-03-08T19:32:34.102Z,1.70
2023-03-08T19:35:04.349Z,1.70
2023-03-08T19:37:32.232Z,1.70
2023-03-08T19:40:01.398Z,1.70
2023-03-08T19:42:29.541Z,1.80
2023-03-08T19:44:57.427Z,1.80
2023-03-08T19:47:26.686Z,1.80
2023-03-08T19:49:54.556Z,1.70
2023-03-08T19:52:22.409Z,1.70
2023-03-08T19:54:50.254Z,1.70
2023-03-08T19:57:18.129Z,1.70
2023-03-08T19:59:45.995Z,1.70
2023-03-08T20:02:14.497Z,1.70
2023-03-08T20:04:43.740Z,1.70
2023-03-08T20:07:11.597Z,1.70
2023-03-08T20:09:41.488Z,1.70
2023-03-08T20:12:10.224Z,1.70
2023-03-08T20:14:38.089Z,1.70
2023-03-08T20:17:06.002Z,1.70
2023-03-08T20:19:34.147Z,1.70
2023-03-08T20:22:05.105Z,1.70
2023-03-08T20:24:32.986Z,1.70
2023-03-08T20:27:00.892Z,1.70
2023-03-08T20:29:28.732Z,1.70
2023-03-08T20:31:58.243Z,1.70
2023-03-08T20:34:27.116Z,1.70
2023-03-08T20:36:54.983Z,1.70
2023-03-08T20:39:24.156Z,1.70
2023-03-08T20:41:53.746Z,1.70
2023-03-08T20:44:21.577Z,1.70
2023-03-08T20:46:50.125Z,1.80
2023-03-08T20:49:17.930Z,1.80
2023-03-08T20:51:45.793Z,1.80
2023-03-08T20:54:13.607Z,1.80
2023-03-08T20:56:42.802Z,1.80
2023-03-08T20:59:10.947Z,1.80
2023-03-08T21:01:39.676Z,1.80
2023-03-08T21:04:07.693Z,1.80
2023-03-08T21:06:35.594Z,1.80
2023-03-08T21:09:03.440Z,1.80
2023-03-08T21:11:31.473Z,1.80
2023-03-08T21:14:00.732Z,1.80
2023-03-08T21:16:29.968Z,1.80
2023-03-08T21:18:59.195Z,1.80
2023-03-08T21:21:30.170Z,1.80
2023-03-08T21:23:59.627Z,1.80
2023-03-08T21:26:28.610Z,1.80
2023-03-08T21:28:58.114Z,1.80
2023-03-08T21:31:27.752Z,1.80
2023-03-08T21:33:55.733Z,1.80
2023-03-08T21:36:24.013Z,1.80
2023-03-08T21:38:53.034Z,1.80
2023-03-08T21:41:22.762Z,1.80
2023-03-08T21:43:50.756Z,1.80
2023-03-08T21:46:19.169Z,1.80
2023-03-08T21:48:48.745Z,1.80
2023-03-08T21:51:17.008Z,1.90
2023-03-08T21:53:45.488Z,1.80
2023-03-08T21:56:15.788Z,1.90
2023-03-08T21:58:44.137Z,1.90
2023-03-08T22:01:19.911Z,1.90
2023-03-08T22:03:49.638Z,1.90
2023-03-08T22:06:17.598Z,1.90
2023-03-08T22:08:45.559Z,1.90
2023-03-08T22:11:13.402Z,1.90
2023-03-08T22:13:41.271Z,1.90
2023-03-08T22:16:09.634Z,1.90
2023-03-08T22:18:37.602Z,1.90
2023-03-08T22:21:07.118Z,1.90
2023-03-08T22:23:35.001Z,1.90
2023-03-08T22:26:03.062Z,1.90
2023-03-08T22:28:30.901Z,1.90
2023-03-08T22:30:58.730Z,1.90
2023-03-08T22:33:26.637Z,1.90
2023-03-08T22:35:54.571Z,1.90
2023-03-08T22:38:23.742Z,2.00
2023-03-08T22:40:51.622Z,2.00
2023-03-08T22:43:19.461Z,2.00
2023-03-08T22:45:47.344Z,2.00
2023-03-08T22:48:15.288Z,2.00
2023-03-08T22:50:43.185Z,1.90
2023-03-08T22:53:11.010Z,2.00
2023-03-08T22:55:47.717Z,1.90
2023-03-08T22:58:15.553Z,2.00
2023-03-08T23:00:43.379Z,2.00
2023-03-08T23:03:11.746Z,2.00
2023-03-08T23:05:39.672Z,2.10
2023-03-08T23:08:08.073Z,2.00
2023-03-08T23:10:37.328Z,2.00
2023-03-08T23:13:06.511Z,2.00
2023-03-08T23:15:34.397Z,2.00
2023-03-08T23:18:02.423Z,2.00
2023-03-08T23:20:30.427Z,1.80
2023-03-08T23:22:58.270Z,2.10
2023-03-08T23:25:26.345Z,1.90
2023-03-08T23:27:54.824Z,1.90
2023-03-08T23:30:24.322Z,1.90
2023-03-08T23:32:52.266Z,1.90
2023-03-08T23:35:20.328Z,1.90
2023-03-08T23:37:48.160Z,1.90
2023-03-08T23:40:16.300Z,1.90
2023-03-08T23:42:44.214Z,1.90
2023-03-08T23:45:13.670Z,1.90
2023-03-08T23:47:42.873Z,1.90
2023-03-08T23:50:11.805Z,1.90
2023-03-08T23:52:39.668Z,1.90
2023-03-08T23:55:08.396Z,1.90
2023-03-08T23:57:36.245Z,1.90
